createdAt,value
2016-07-30T00:00:38.604Z,17
2016-07-30T00:01:38.595Z,17.12
2016-07-30T00:02:38.611Z,17
2016-07-30T00:03:38.590Z,17.06
2016-07-30T00:04:38.660Z,17.03
2016-07-30T00:05:38.582Z,17.02
2016-07-30T00:06:38.573Z,17.02
2016-07-30T00:07:38.583Z,17.05
2016-07-30T00:08:38.583Z,16.99
2016-07-30T00:09:38.597Z,17
2016-07-30T00:10:38.574Z,16.97
2016-07-30T00:11:38.615Z,16.95
2016-07-30T00:12:38.596Z,17.02
2016-07-30T00:13:38.569Z,17.02
2016-07-30T00:14:38.597Z,17.09
2016-07-30T00:15:38.560Z,17
2016-07-30T00:16:38.572Z,16.99
2016-07-30T00:17:38.561Z,17
2016-07-30T00:18:38.562Z,16.92
2016-07-30T00:19:38.562Z,16.88
2016-07-30T00:20:38.569Z,16.99
2016-07-30T00:21:38.572Z,16.95
2016-07-30T00:22:38.580Z,16.99
2016-07-30T00:23:39.283Z,16.94
2016-07-30T00:24:38.920Z,16.92
2016-07-30T00:25:38.611Z,16.92
2016-07-30T00:26:38.548Z,16.91
2016-07-30T00:27:38.542Z,16.85
2016-07-30T00:28:39.313Z,16.73
2016-07-30T00:29:38.547Z,16.77
2016-07-30T00:30:38.545Z,16.84
2016-07-30T00:31:38.521Z,16.81
2016-07-30T00:32:38.523Z,16.76
2016-07-30T00:33:38.531Z,16.77
2016-07-30T00:34:38.536Z,16.69
2016-07-30T00:35:38.607Z,16.72
2016-07-30T00:36:38.551Z,16.69
2016-07-30T00:37:38.536Z,16.69
2016-07-30T00:38:38.532Z,16.54
2016-07-30T00:39:38.582Z,16.57
2016-07-30T00:40:38.541Z,16.62
2016-07-30T00:41:38.565Z,16.59
2016-07-30T00:42:38.518Z,16.52
2016-07-30T00:43:38.505Z,16.52
2016-07-30T00:44:38.500Z,16.54
2016-07-30T00:45:38.501Z,16.37
2016-07-30T00:46:38.500Z,16.37
2016-07-30T00:47:38.493Z,16.48
2016-07-30T00:48:38.496Z,16.36
2016-07-30T00:49:38.508Z,16.45
2016-07-30T00:50:38.502Z,16.39
2016-07-30T00:51:39.236Z,16.39
2016-07-30T00:52:38.504Z,16.48
2016-07-30T00:53:38.509Z,16.51
2016-07-30T00:54:38.493Z,16.48
2016-07-30T00:55:38.511Z,16.51
2016-07-30T00:56:38.508Z,16.52
2016-07-30T00:57:38.473Z,16.45
2016-07-30T00:58:38.471Z,16.54
2016-07-30T00:59:38.468Z,16.47
2016-07-30T01:00:38.493Z,16.49
2016-07-30T01:01:38.476Z,16.51
2016-07-30T01:02:38.527Z,16.52
2016-07-30T01:03:38.496Z,16.49
2016-07-30T01:04:38.479Z,16.37
2016-07-30T01:05:38.468Z,16.39
2016-07-30T01:06:38.456Z,16.36
2016-07-30T01:07:38.494Z,16.39
2016-07-30T01:08:38.461Z,16.42
2016-07-30T01:09:38.479Z,16.42
2016-07-30T01:10:38.454Z,16.34
2016-07-30T01:11:38.434Z,16.32
2016-07-30T01:12:38.430Z,16.34
2016-07-30T01:13:38.415Z,16.36
2016-07-30T01:14:38.422Z,16.34
2016-07-30T01:15:38.412Z,16.32
2016-07-30T01:16:38.420Z,16.34
2016-07-30T01:17:38.413Z,16.36
2016-07-30T01:18:38.444Z,16.29
2016-07-30T01:19:38.422Z,16.34
2016-07-30T01:20:38.417Z,16.3
2016-07-30T01:21:38.411Z,16.16
2016-07-30T01:22:38.408Z,16.34
2016-07-30T01:23:38.394Z,16.13
2016-07-30T01:24:38.407Z,16.17
2016-07-30T01:25:38.420Z,16.14
2016-07-30T01:26:38.403Z,16.04
2016-07-30T01:27:38.399Z,15.92
2016-07-30T01:28:38.385Z,15.84
2016-07-30T01:29:38.389Z,15.92
2016-07-30T01:30:38.376Z,15.77
2016-07-30T01:31:38.379Z,15.74
2016-07-30T01:32:38.418Z,15.59
2016-07-30T01:33:38.367Z,15.6
2016-07-30T01:34:38.364Z,15.58
2016-07-30T01:35:38.405Z,15.58
2016-07-30T01:36:38.424Z,15.45
2016-07-30T01:37:38.372Z,15.53
2016-07-30T01:38:38.369Z,15.4
2016-07-30T01:39:38.395Z,15.44
2016-07-30T01:40:38.381Z,15.41
2016-07-30T01:41:39.091Z,15.43
2016-07-30T01:42:38.357Z,15.37
2016-07-30T01:43:38.339Z,15.37
2016-07-30T01:44:38.364Z,15.38
2016-07-30T01:45:38.382Z,15.44
2016-07-30T01:46:38.374Z,15.27
2016-07-30T01:47:38.378Z,15.38
2016-07-30T01:48:38.349Z,15.4
2016-07-30T01:49:38.328Z,15.38
2016-07-30T01:50:38.318Z,15.33
2016-07-30T01:51:38.314Z,15.4
2016-07-30T01:52:38.314Z,15.38
2016-07-30T01:53:38.328Z,15.33
2016-07-30T01:54:38.305Z,15.33
2016-07-30T01:55:38.331Z,15.35
2016-07-30T01:56:38.332Z,15.41
2016-07-30T01:57:38.340Z,15.43
2016-07-30T01:58:38.293Z,15.44
2016-07-30T01:59:38.299Z,15.41
2016-07-30T02:00:38.284Z,15.41
2016-07-30T02:01:38.322Z,15.43
2016-07-30T02:02:38.320Z,15.45
2016-07-30T02:03:38.311Z,15.51
2016-07-30T02:04:38.263Z,15.52
2016-07-30T02:05:38.270Z,15.56
2016-07-30T02:06:38.296Z,15.55
2016-07-30T02:07:38.295Z,15.47
2016-07-30T02:08:38.280Z,15.53
2016-07-30T02:09:38.283Z,15.51
2016-07-30T02:10:38.268Z,15.44
2016-07-30T02:11:38.259Z,15.44
2016-07-30T02:12:38.266Z,15.34
2016-07-30T02:13:38.252Z,15.3
2016-07-30T02:14:38.388Z,15.41
2016-07-30T02:15:38.396Z,15.31
2016-07-30T02:16:38.251Z,15.23
2016-07-30T02:17:38.239Z,15.13
2016-07-30T02:18:38.229Z,15.04
2016-07-30T02:19:38.220Z,15.1
2016-07-30T02:20:38.253Z,15
2016-07-30T02:21:38.263Z,15.01
2016-07-30T02:22:38.252Z,15
2016-07-30T02:23:38.218Z,14.95
2016-07-30T02:24:39.008Z,14.83
2016-07-30T02:25:38.232Z,14.86
2016-07-30T02:26:38.227Z,14.82
2016-07-30T02:27:38.197Z,14.71
2016-07-30T02:28:38.201Z,14.69
2016-07-30T02:29:38.221Z,14.71
2016-07-30T02:30:38.232Z,14.69
2016-07-30T02:31:38.232Z,14.66
2016-07-30T02:32:38.177Z,14.66
2016-07-30T02:33:38.167Z,14.67
2016-07-30T02:34:38.186Z,14.7
2016-07-30T02:35:38.265Z,14.66
2016-07-30T02:36:38.163Z,14.66
2016-07-30T02:37:38.876Z,14.69
2016-07-30T02:38:38.151Z,14.61
2016-07-30T02:39:38.159Z,14.69
2016-07-30T02:40:38.144Z,14.71
2016-07-30T02:41:38.143Z,14.82
2016-07-30T02:42:38.134Z,14.86
2016-07-30T02:43:38.137Z,15.01
2016-07-30T02:44:38.133Z,15.01
2016-07-30T02:45:38.134Z,15.07
2016-07-30T02:46:38.121Z,15.05
2016-07-30T02:47:38.125Z,15.1
2016-07-30T02:48:38.149Z,15.22
2016-07-30T02:49:38.125Z,15.3
2016-07-30T02:50:38.138Z,15.31
2016-07-30T02:51:38.141Z,15.35
2016-07-30T02:53:38.115Z,15.44
2016-07-30T02:54:38.086Z,15.55
2016-07-30T02:55:38.141Z,15.55
2016-07-30T02:56:38.134Z,15.63
2016-07-30T02:57:38.100Z,15.62
2016-07-30T02:58:38.134Z,15.71
2016-07-30T02:59:38.100Z,15.78
2016-07-30T03:00:38.093Z,15.71
2016-07-30T03:01:38.063Z,15.74
2016-07-30T03:02:38.059Z,15.84
2016-07-30T03:03:38.070Z,15.89
2016-07-30T03:04:38.099Z,15.89
2016-07-30T03:05:38.052Z,15.99
2016-07-30T03:06:38.060Z,15.93
2016-07-30T03:08:38.074Z,16.04
2016-07-30T03:09:38.091Z,16.06
2016-07-30T03:10:38.086Z,16.1
2016-07-30T03:11:38.062Z,16.14
2016-07-30T03:12:38.057Z,16.18
2016-07-30T03:13:38.057Z,16.17
2016-07-30T03:14:38.016Z,16.18
2016-07-30T03:15:38.031Z,16.21
2016-07-30T03:16:38.040Z,16.22
2016-07-30T03:17:38.035Z,16.25
2016-07-30T03:18:38.983Z,16.27
2016-07-30T03:19:38.028Z,16.29
2016-07-30T03:20:38.004Z,16.32
2016-07-30T03:21:38.005Z,16.32
2016-07-30T03:23:38.000Z,16.26
2016-07-30T03:24:38.000Z,16.34
2016-07-30T03:25:37.991Z,16.27
2016-07-30T03:26:37.992Z,16.3
2016-07-30T03:27:37.998Z,16.26
2016-07-30T03:28:38.751Z,16.33
2016-07-30T03:29:37.983Z,16.3
2016-07-30T03:30:37.984Z,16.29
2016-07-30T03:31:38.000Z,16.26
2016-07-30T03:32:37.981Z,16.34
2016-07-30T03:33:37.997Z,16.3
2016-07-30T03:34:37.994Z,16.34
2016-07-30T03:35:37.965Z,16.42
2016-07-30T03:36:37.991Z,16.39
2016-07-30T03:38:37.981Z,16.39
2016-07-30T03:39:37.944Z,16.33
2016-07-30T03:40:37.944Z,16.51
2016-07-30T03:41:37.951Z,16.45
2016-07-30T03:42:38.763Z,16.49
2016-07-30T03:43:37.949Z,16.54
2016-07-30T03:44:37.941Z,16.48
2016-07-30T03:45:37.932Z,16.51
2016-07-30T03:46:37.932Z,16.51
2016-07-30T03:47:37.962Z,16.49
2016-07-30T03:48:37.943Z,16.52
2016-07-30T03:49:37.916Z,16.55
2016-07-30T03:50:37.933Z,16.62
2016-07-30T03:51:37.971Z,16.62
2016-07-30T03:52:37.950Z,16.58
2016-07-30T03:53:37.930Z,16.62
2016-07-30T03:54:37.931Z,16.57
2016-07-30T03:55:37.934Z,16.55
2016-07-30T03:56:37.902Z,16.59
2016-07-30T03:57:37.908Z,16.65
2016-07-30T03:58:37.917Z,16.62
2016-07-30T03:59:37.932Z,16.59
2016-07-30T04:00:37.936Z,16.55
2016-07-30T04:01:37.899Z,16.67
2016-07-30T04:02:37.879Z,16.59
2016-07-30T04:03:37.896Z,16.54
2016-07-30T04:04:37.884Z,16.55
2016-07-30T04:05:37.888Z,16.58
2016-07-30T04:06:37.874Z,16.65
2016-07-30T04:07:37.879Z,16.63
2016-07-30T04:08:37.884Z,16.67
2016-07-30T04:09:38.572Z,16.66
2016-07-30T04:10:37.885Z,16.65
2016-07-30T04:11:37.902Z,16.66
2016-07-30T04:12:37.948Z,16.69
2016-07-30T04:13:37.864Z,16.63
2016-07-30T04:14:37.883Z,16.59
2016-07-30T04:15:37.864Z,16.66
2016-07-30T04:16:37.888Z,16.69
2016-07-30T04:17:37.868Z,16.69
2016-07-30T04:18:37.871Z,16.69
2016-07-30T04:19:37.902Z,16.65
2016-07-30T04:20:37.871Z,16.69
2016-07-30T04:21:37.837Z,16.57
2016-07-30T04:22:37.846Z,16.67
2016-07-30T04:23:37.833Z,16.65
2016-07-30T04:24:37.832Z,16.62
2016-07-30T04:25:37.834Z,16.63
2016-07-30T04:26:37.838Z,16.58
2016-07-30T04:27:37.820Z,16.63
2016-07-30T04:28:37.823Z,16.66
2016-07-30T04:29:37.832Z,16.66
2016-07-30T04:30:37.839Z,16.66
2016-07-30T04:31:37.823Z,16.65
2016-07-30T04:32:37.827Z,16.69
2016-07-30T04:33:37.802Z,16.66
2016-07-30T04:34:37.821Z,16.69
2016-07-30T04:35:38.502Z,16.69
2016-07-30T04:36:37.838Z,16.74
2016-07-30T04:37:37.796Z,16.76
2016-07-30T04:38:37.803Z,16.9
2016-07-30T04:39:37.820Z,16.91
2016-07-30T04:40:37.822Z,16.87
2016-07-30T04:41:37.842Z,16.95
2016-07-30T04:42:37.819Z,16.99
2016-07-30T04:43:37.828Z,16.91
2016-07-30T04:44:37.795Z,16.9
2016-07-30T04:45:37.812Z,16.94
2016-07-30T04:46:37.835Z,17.03
2016-07-30T04:47:37.808Z,16.95
2016-07-30T04:48:37.792Z,17.05
2016-07-30T04:49:37.775Z,17.06
2016-07-30T04:50:37.785Z,17.06
2016-07-30T04:51:37.781Z,17.05
2016-07-30T04:52:37.804Z,17.05
2016-07-30T04:53:37.766Z,17.09
2016-07-30T04:54:37.806Z,17.1
2016-07-30T04:55:37.793Z,17.17
2016-07-30T04:56:37.771Z,17.17
2016-07-30T04:57:37.884Z,17.21
2016-07-30T04:58:37.795Z,17.1
2016-07-30T04:59:37.780Z,17.15
2016-07-30T05:00:37.774Z,17.1
2016-07-30T05:01:37.774Z,17.15
2016-07-30T05:02:37.796Z,17.03
2016-07-30T05:03:37.798Z,17
2016-07-30T05:04:38.589Z,17.02
2016-07-30T05:05:37.731Z,17.06
2016-07-30T05:06:37.773Z,17.05
2016-07-30T05:07:37.739Z,17.05
2016-07-30T05:08:37.735Z,17.06
2016-07-30T05:09:38.830Z,17.09
2016-07-30T05:10:37.725Z,17.15
2016-07-30T05:11:37.740Z,17.17
2016-07-30T05:12:37.783Z,17.31
2016-07-30T05:13:37.719Z,17.25
2016-07-30T05:14:37.745Z,17.39
2016-07-30T05:15:37.740Z,17.45
2016-07-30T05:16:37.747Z,17.47
2016-07-30T05:17:37.731Z,17.55
2016-07-30T05:18:37.791Z,17.52
2016-07-30T05:19:37.700Z,17.57
2016-07-30T05:20:37.725Z,17.46
2016-07-30T05:21:37.724Z,17.49
2016-07-30T05:22:37.691Z,17.43
2016-07-30T05:23:37.691Z,17.47
2016-07-30T05:24:37.699Z,17.54
2016-07-30T05:25:37.704Z,17.52
2016-07-30T05:26:37.691Z,17.5
2016-07-30T05:27:37.697Z,17.57
2016-07-30T05:28:37.687Z,17.55
2016-07-30T05:29:37.681Z,17.57
2016-07-30T05:30:37.673Z,17.5
2016-07-30T05:31:37.700Z,17.45
2016-07-30T05:32:37.685Z,17.5
2016-07-30T05:33:37.685Z,17.46
2016-07-30T05:34:37.675Z,17.57
2016-07-30T05:35:37.707Z,17.6
2016-07-30T05:36:37.704Z,17.73
2016-07-30T05:37:37.663Z,17.74
2016-07-30T05:38:37.654Z,17.69
2016-07-30T05:39:38.143Z,17.79
2016-07-30T05:40:37.690Z,17.83
2016-07-30T05:41:38.477Z,17.9
2016-07-30T05:42:37.675Z,17.88
2016-07-30T05:43:37.662Z,17.84
2016-07-30T05:44:37.658Z,17.83
2016-07-30T05:45:37.654Z,17.87
2016-07-30T05:46:37.654Z,17.83
2016-07-30T05:47:37.644Z,17.86
2016-07-30T05:48:37.681Z,17.87
2016-07-30T05:49:37.649Z,17.92
2016-07-30T05:50:37.651Z,17.96
2016-07-30T05:51:37.675Z,18.01
2016-07-30T05:52:37.651Z,18.1
2016-07-30T05:53:37.648Z,18.23
2016-07-30T05:54:37.655Z,18.2
2016-07-30T05:55:37.657Z,18.24
2016-07-30T05:56:37.672Z,18.39
2016-07-30T05:57:37.650Z,18.39
2016-07-30T05:58:37.654Z,18.45
2016-07-30T05:59:37.651Z,18.47
2016-07-30T06:00:37.617Z,18.38
2016-07-30T06:01:37.617Z,18.41
2016-07-30T06:02:37.623Z,18.38
2016-07-30T06:03:37.654Z,18.47
2016-07-30T06:04:37.614Z,18.38
2016-07-30T06:05:37.685Z,18.35
2016-07-30T06:06:37.640Z,18.32
2016-07-30T06:07:37.665Z,18.31
2016-07-30T06:08:37.642Z,18.34
2016-07-30T06:09:37.622Z,18.27
2016-07-30T06:10:37.616Z,18.26
2016-07-30T06:11:37.625Z,18.26
2016-07-30T06:12:37.640Z,18.31
2016-07-30T06:13:37.629Z,18.29
2016-07-30T06:14:37.634Z,18.23
2016-07-30T06:15:37.597Z,18.32
2016-07-30T06:16:37.597Z,18.34
2016-07-30T06:17:37.599Z,18.34
2016-07-30T06:18:37.585Z,18.23
2016-07-30T06:19:37.588Z,18.31
2016-07-30T06:20:37.643Z,18.31
2016-07-30T06:21:37.584Z,18.31
2016-07-30T06:22:38.302Z,18.32
2016-07-30T06:23:37.578Z,18.35
2016-07-30T06:24:37.616Z,18.41
2016-07-30T06:25:37.598Z,18.42
2016-07-30T06:26:37.579Z,18.35
2016-07-30T06:27:37.587Z,18.34
2016-07-30T06:28:38.295Z,18.39
2016-07-30T06:29:37.599Z,18.39
2016-07-30T06:30:37.605Z,18.39
2016-07-30T06:31:37.618Z,18.47
2016-07-30T06:32:37.567Z,18.5
2016-07-30T06:33:37.567Z,18.45
2016-07-30T06:34:37.704Z,18.53
2016-07-30T06:35:37.705Z,18.56
2016-07-30T06:36:37.776Z,18.53
2016-07-30T06:37:37.695Z,18.53
2016-07-30T06:38:37.706Z,18.6
2016-07-30T06:39:37.705Z,18.6
2016-07-30T06:40:37.718Z,18.74
2016-07-30T06:41:37.553Z,18.74
2016-07-30T06:42:37.627Z,18.74
2016-07-30T06:43:37.556Z,18.76
2016-07-30T06:44:37.557Z,18.81
2016-07-30T06:45:37.575Z,18.89
2016-07-30T06:46:37.573Z,18.91
2016-07-30T06:47:37.559Z,18.97
2016-07-30T06:48:37.553Z,19.2
2016-07-30T06:49:37.543Z,19.31
2016-07-30T06:50:37.547Z,19.57
2016-07-30T06:51:37.558Z,19.87
2016-07-30T06:52:37.554Z,20.16
2016-07-30T06:53:37.571Z,20.48
2016-07-30T06:54:37.556Z,20.71
2016-07-30T06:55:37.542Z,20.9
2016-07-30T06:56:37.537Z,21.19
2016-07-30T06:57:37.543Z,21.51
2016-07-30T06:58:37.542Z,21.61
2016-07-30T06:59:37.549Z,21.71
2016-07-30T07:00:37.541Z,21.74
2016-07-30T07:01:37.564Z,21.85
2016-07-30T07:02:37.547Z,22.23
2016-07-30T07:03:37.543Z,22.64
2016-07-30T07:04:37.540Z,23.25
2016-07-30T07:05:37.545Z,23.82
2016-07-30T07:06:38.470Z,24.24
2016-07-30T07:07:37.554Z,24.69
2016-07-30T07:08:38.391Z,25.19
2016-07-30T07:09:37.552Z,25.6
2016-07-30T07:10:37.570Z,26.17
2016-07-30T07:11:37.553Z,26.31
2016-07-30T07:12:37.575Z,26.42
2016-07-30T07:13:37.559Z,26.76
2016-07-30T07:14:37.558Z,27.13
2016-07-30T07:15:37.564Z,27.66
2016-07-30T07:16:37.570Z,28.08
2016-07-30T07:17:37.573Z,28.16
2016-07-30T07:18:37.573Z,28.26
2016-07-30T07:19:37.590Z,28.11
2016-07-30T07:20:37.578Z,28.05
2016-07-30T07:21:37.582Z,27.84
2016-07-30T07:22:37.606Z,27.64
2016-07-30T07:24:37.626Z,26.84
2016-07-30T07:25:37.603Z,26.82
2016-07-30T07:26:37.601Z,27.01
2016-07-30T07:27:37.606Z,27.08
2016-07-30T07:28:37.604Z,27.05
2016-07-30T07:29:37.610Z,26.87
2016-07-30T07:30:37.614Z,26.54
2016-07-30T07:31:37.628Z,26.3
2016-07-30T07:32:37.637Z,25.91
2016-07-30T07:33:37.651Z,26.06
2016-07-30T07:34:37.627Z,26.16
2016-07-30T07:35:37.657Z,26.3
2016-07-30T07:36:37.636Z,26.49
2016-07-30T07:37:37.819Z,26.56
2016-07-30T07:39:37.682Z,26.37
2016-07-30T07:40:37.690Z,26.31
2016-07-30T07:41:37.658Z,26.22
2016-07-30T07:42:37.674Z,26.06
2016-07-30T07:43:37.672Z,25.91
2016-07-30T07:44:37.669Z,25.84
2016-07-30T07:45:37.728Z,25.76
2016-07-30T07:46:37.676Z,25.47
2016-07-30T07:47:37.690Z,25.29
2016-07-30T07:48:37.703Z,25.04
2016-07-30T07:49:37.708Z,24.96
2016-07-30T07:50:37.728Z,24.58
2016-07-30T07:51:37.716Z,24.26
2016-07-30T07:52:37.721Z,23.92
2016-07-30T07:54:37.708Z,23.38
2016-07-30T07:55:37.712Z,23.12
2016-07-30T07:56:37.728Z,22.99
2016-07-30T07:57:37.729Z,22.88
2016-07-30T07:58:37.740Z,22.86
2016-07-30T07:59:37.740Z,22.78
2016-07-30T08:00:37.758Z,22.78
2016-07-30T08:01:37.746Z,22.63
2016-07-30T08:02:37.735Z,22.54
2016-07-30T08:03:37.735Z,22.41
2016-07-30T08:04:37.781Z,22.3
2016-07-30T08:05:37.782Z,22.23
2016-07-30T08:06:38.475Z,22.27
2016-07-30T08:07:37.749Z,22.27
2016-07-30T08:09:37.774Z,22.3
2016-07-30T08:10:37.765Z,22.27
2016-07-30T08:11:37.763Z,22.3
2016-07-30T08:12:37.775Z,22.36
2016-07-30T08:13:37.761Z,22.3
2016-07-30T08:14:37.774Z,22.27
2016-07-30T08:15:37.786Z,22.42
2016-07-30T08:16:37.764Z,22.55
2016-07-30T08:17:37.804Z,22.64
2016-07-30T08:18:37.783Z,23.04
2016-07-30T08:19:37.780Z,23.12
2016-07-30T08:20:38.495Z,23.29
2016-07-30T08:21:37.783Z,23.34
2016-07-30T08:22:37.779Z,23.52
2016-07-30T08:23:37.801Z,23.74
2016-07-30T08:24:37.803Z,23.99
2016-07-30T08:25:37.787Z,24.14
2016-07-30T08:26:37.797Z,24.34
2016-07-30T08:27:37.845Z,24.39
2016-07-30T08:28:37.808Z,24.49
2016-07-30T08:29:37.805Z,24.51
2016-07-30T08:30:37.800Z,24.55
2016-07-30T08:31:37.814Z,24.51
2016-07-30T08:32:37.812Z,24.42
2016-07-30T08:33:37.805Z,24.33
2016-07-30T08:34:37.820Z,24.3
2016-07-30T08:35:37.850Z,24.32
2016-07-30T08:36:37.858Z,24.24
2016-07-30T08:37:37.837Z,24.18
2016-07-30T08:38:37.826Z,24.19
2016-07-30T08:39:37.822Z,24.15
2016-07-30T08:40:37.839Z,24
2016-07-30T08:41:37.835Z,23.97
2016-07-30T08:42:37.841Z,23.85
2016-07-30T08:43:37.846Z,23.87
2016-07-30T08:44:37.854Z,23.89
2016-07-30T08:45:37.877Z,23.77
2016-07-30T08:46:37.852Z,23.87
2016-07-30T08:47:37.850Z,23.81
2016-07-30T08:48:37.855Z,23.79
2016-07-30T08:49:37.899Z,23.79
2016-07-30T08:50:37.924Z,23.72
2016-07-30T08:51:37.861Z,23.71
2016-07-30T08:52:37.867Z,23.85
2016-07-30T08:53:37.865Z,23.97
2016-07-30T08:54:37.896Z,24.15
2016-07-30T08:55:37.891Z,24.34
2016-07-30T08:56:37.879Z,24.56
2016-07-30T08:57:37.896Z,24.66
2016-07-30T08:58:37.894Z,24.93
2016-07-30T08:59:37.878Z,25.02
2016-07-30T09:00:37.888Z,25.12
2016-07-30T09:01:37.890Z,25.05
2016-07-30T09:02:37.892Z,24.97
2016-07-30T09:03:37.964Z,25.01
2016-07-30T09:04:37.923Z,25.07
2016-07-30T09:05:37.945Z,25.02
2016-07-30T09:06:37.942Z,25.08
2016-07-30T09:07:37.957Z,25.23
2016-07-30T09:08:37.928Z,25.34
2016-07-30T09:09:37.916Z,25.32
2016-07-30T09:10:37.914Z,25.27
2016-07-30T09:11:37.941Z,25.17
2016-07-30T09:12:37.928Z,25.09
2016-07-30T09:13:37.962Z,25
2016-07-30T09:14:37.926Z,25.02
2016-07-30T09:15:37.932Z,25.12
2016-07-30T09:16:37.966Z,25.12
2016-07-30T09:17:38.044Z,25.22
2016-07-30T09:18:37.960Z,25.2
2016-07-30T09:19:37.976Z,25.29
2016-07-30T09:20:37.967Z,25.24
2016-07-30T09:21:37.959Z,25.2
2016-07-30T09:22:37.962Z,25.14
2016-07-30T09:23:37.960Z,25.07
2016-07-30T09:24:37.960Z,24.96
2016-07-30T09:25:37.975Z,24.85
2016-07-30T09:26:37.979Z,24.86
2016-07-30T09:27:37.986Z,24.67
2016-07-30T09:28:38.955Z,24.78
2016-07-30T09:29:38.013Z,25.05
2016-07-30T09:30:38.027Z,25.07
2016-07-30T09:31:38.025Z,25.19
2016-07-30T09:32:37.997Z,25.3
2016-07-30T09:33:38.113Z,25.42
2016-07-30T09:34:38.024Z,25.52
2016-07-30T09:35:38.047Z,25.57
2016-07-30T09:36:38.011Z,25.47
2016-07-30T09:37:38.012Z,25.49
2016-07-30T09:38:38.011Z,25.44
2016-07-30T09:39:38.031Z,25.51
2016-07-30T09:40:38.013Z,25.3
2016-07-30T09:41:38.045Z,25.2
2016-07-30T09:42:38.055Z,25.07
2016-07-30T09:43:38.031Z,25.08
2016-07-30T09:44:38.053Z,25.02
2016-07-30T09:45:38.061Z,25.02
2016-07-30T09:46:38.810Z,25.11
2016-07-30T09:47:38.091Z,25.05
2016-07-30T09:48:38.060Z,25.09
2016-07-30T09:49:38.237Z,24.97
2016-07-30T09:50:38.077Z,24.83
2016-07-30T09:51:38.054Z,24.71
2016-07-30T09:52:38.073Z,24.69
2016-07-30T09:53:38.070Z,24.8
2016-07-30T09:54:38.281Z,24.8
2016-07-30T09:55:38.092Z,24.52
2016-07-30T09:56:38.106Z,24.44
2016-07-30T09:57:38.086Z,24.33
2016-07-30T09:58:38.093Z,24.19
2016-07-30T09:59:38.106Z,24.02
2016-07-30T10:00:38.100Z,23.89
2016-07-30T10:01:38.160Z,23.6
2016-07-30T10:02:38.146Z,23.45
2016-07-30T10:03:38.168Z,23.38
2016-07-30T10:04:38.107Z,23.14
2016-07-30T10:05:38.168Z,23
2016-07-30T10:06:38.878Z,22.86
2016-07-30T10:07:38.118Z,22.76
2016-07-30T10:08:38.858Z,22.61
2016-07-30T10:09:38.172Z,22.78
2016-07-30T10:10:38.152Z,22.97
2016-07-30T10:11:38.126Z,23.04
2016-07-30T10:12:38.128Z,23.03
2016-07-30T10:13:38.136Z,23.1
2016-07-30T10:14:38.132Z,23.18
2016-07-30T10:15:38.145Z,23.14
2016-07-30T10:16:38.132Z,23.09
2016-07-30T10:17:38.140Z,23.18
2016-07-30T10:18:38.162Z,23.12
2016-07-30T10:19:38.150Z,23.26
2016-07-30T10:20:38.151Z,23.28
2016-07-30T10:21:38.162Z,23.35
2016-07-30T10:22:38.170Z,23.44
2016-07-30T10:23:38.174Z,23.48
2016-07-30T10:24:38.179Z,23.52
2016-07-30T10:25:38.184Z,23.53
2016-07-30T10:26:38.166Z,23.67
2016-07-30T10:27:38.176Z,23.72
2016-07-30T10:28:38.170Z,23.72
2016-07-30T10:29:38.178Z,23.66
2016-07-30T10:30:38.172Z,23.56
2016-07-30T10:31:38.180Z,23.66
2016-07-30T10:32:38.174Z,23.53
2016-07-30T10:33:38.181Z,23.57
2016-07-30T10:34:38.185Z,23.42
2016-07-30T10:35:38.206Z,23.4
2016-07-30T10:36:38.186Z,23.38
2016-07-30T10:37:38.209Z,23.38
2016-07-30T10:38:38.201Z,23.34
2016-07-30T10:39:38.206Z,23.37
2016-07-30T10:40:38.210Z,23.52
2016-07-30T10:41:38.205Z,23.57
2016-07-30T10:42:38.206Z,23.6
2016-07-30T10:43:38.216Z,23.72
2016-07-30T10:44:38.214Z,23.75
2016-07-30T10:45:38.226Z,23.79
2016-07-30T10:46:38.952Z,23.92
2016-07-30T10:47:38.495Z,23.9
2016-07-30T10:48:38.218Z,23.9
2016-07-30T10:49:38.236Z,23.93
2016-07-30T10:50:38.234Z,23.96
2016-07-30T10:51:38.229Z,23.99
2016-07-30T10:52:38.247Z,24
2016-07-30T10:53:38.244Z,24.12
2016-07-30T10:54:38.246Z,24.27
2016-07-30T10:55:38.257Z,24.29
2016-07-30T10:56:38.238Z,24.3
2016-07-30T10:57:38.240Z,24.33
2016-07-30T10:58:38.259Z,24.42
2016-07-30T10:59:39.261Z,24.54
2016-07-30T11:00:38.262Z,24.7
2016-07-30T11:01:38.260Z,24.69
2016-07-30T11:02:38.267Z,24.63
2016-07-30T11:03:38.300Z,24.46
2016-07-30T11:04:38.287Z,24.21
2016-07-30T11:05:38.272Z,24.02
2016-07-30T11:06:38.287Z,23.9
2016-07-30T11:07:38.284Z,23.74
2016-07-30T11:08:38.294Z,23.67
2016-07-30T11:10:38.324Z,23.22
2016-07-30T11:11:38.301Z,23.1
2016-07-30T11:12:38.290Z,23.01
2016-07-30T11:13:38.321Z,22.86
2016-07-30T11:14:38.318Z,22.78
2016-07-30T11:15:38.313Z,22.67
2016-07-30T11:16:38.344Z,22.6
2016-07-30T11:17:38.336Z,22.69
2016-07-30T11:18:38.334Z,22.64
2016-07-30T11:19:38.315Z,22.63
2016-07-30T11:20:38.312Z,22.81
2016-07-30T11:21:39.796Z,22.85
2016-07-30T11:22:38.337Z,22.91
2016-07-30T11:23:38.336Z,22.96
2016-07-30T11:25:38.328Z,23.14
2016-07-30T11:26:38.326Z,23.28
2016-07-30T11:27:38.329Z,23.45
2016-07-30T11:28:38.357Z,23.78
2016-07-30T11:29:38.385Z,24.03
2016-07-30T11:30:39.073Z,24.11
2016-07-30T11:31:38.355Z,24.19
2016-07-30T11:32:39.095Z,24.17
2016-07-30T11:33:38.384Z,24.15
2016-07-30T11:34:38.391Z,24.17
2016-07-30T11:35:38.383Z,24.14
2016-07-30T11:36:38.353Z,24.19
2016-07-30T11:37:38.394Z,24.22
2016-07-30T11:38:38.404Z,24.27
2016-07-30T11:40:38.365Z,24.39
2016-07-30T11:41:38.364Z,24.49
2016-07-30T11:42:38.370Z,24.52
2016-07-30T11:43:38.393Z,24.59
2016-07-30T11:44:38.408Z,24.59
2016-07-30T11:45:38.384Z,24.56
2016-07-30T11:46:38.405Z,24.61
2016-07-30T11:47:38.404Z,24.85
2016-07-30T11:48:38.386Z,24.83
2016-07-30T11:49:38.387Z,24.96
2016-07-30T11:50:38.397Z,24.93
2016-07-30T11:51:38.406Z,24.87
2016-07-30T11:52:38.401Z,24.93
2016-07-30T11:53:38.415Z,24.92
2016-07-30T11:55:38.431Z,24.75
2016-07-30T11:56:38.446Z,24.69
2016-07-30T11:57:38.448Z,24.67
2016-07-30T11:58:38.448Z,24.69
2016-07-30T11:59:38.437Z,24.69
2016-07-30T12:00:38.424Z,24.64
2016-07-30T12:01:38.467Z,24.56
2016-07-30T12:02:38.457Z,24.58
2016-07-30T12:03:38.443Z,24.51
2016-07-30T12:04:38.481Z,24.49
2016-07-30T12:05:39.247Z,24.44
2016-07-30T12:06:38.440Z,24.44
2016-07-30T12:07:38.451Z,24.37
2016-07-30T12:08:38.460Z,24.54
2016-07-30T12:09:39.213Z,24.69
2016-07-30T12:10:38.468Z,24.85
2016-07-30T12:11:38.463Z,24.87
2016-07-30T12:12:38.515Z,24.9
2016-07-30T12:13:38.735Z,24.83
2016-07-30T12:14:38.484Z,24.66
2016-07-30T12:15:39.383Z,24.82
2016-07-30T12:16:38.492Z,24.64
2016-07-30T12:17:38.499Z,24.67
2016-07-30T12:18:38.494Z,24.7
2016-07-30T12:19:38.495Z,24.66
2016-07-30T12:20:38.532Z,24.61
2016-07-30T12:21:38.517Z,24.67
2016-07-30T12:22:38.499Z,24.55
2016-07-30T12:23:38.513Z,24.55
2016-07-30T12:24:38.508Z,24.48
2016-07-30T12:25:38.522Z,24.44
2016-07-30T12:26:38.525Z,24.27
2016-07-30T12:27:38.531Z,24.14
2016-07-30T12:28:38.525Z,24.03
2016-07-30T12:29:38.540Z,24
2016-07-30T12:30:38.555Z,23.99
2016-07-30T12:31:38.547Z,23.97
2016-07-30T12:32:38.553Z,23.87
2016-07-30T12:33:38.563Z,23.87
2016-07-30T12:34:38.586Z,23.71
2016-07-30T12:35:38.551Z,23.64
2016-07-30T12:36:38.537Z,23.64
2016-07-30T12:37:38.551Z,23.59
2016-07-30T12:38:38.585Z,23.59
2016-07-30T12:39:38.556Z,23.5
2016-07-30T12:40:38.583Z,23.53
2016-07-30T12:41:38.563Z,23.56
2016-07-30T12:42:38.572Z,23.63
2016-07-30T12:43:38.591Z,23.6
2016-07-30T12:44:38.621Z,23.57
2016-07-30T12:45:38.578Z,23.6
2016-07-30T12:46:38.574Z,23.6
2016-07-30T12:47:38.632Z,23.72
2016-07-30T12:48:38.627Z,23.71
2016-07-30T12:49:38.586Z,23.87
2016-07-30T12:50:38.627Z,23.99
2016-07-30T12:51:38.607Z,23.96
2016-07-30T12:52:38.606Z,23.96
2016-07-30T12:53:38.602Z,24
2016-07-30T12:54:38.592Z,24.14
2016-07-30T12:55:38.601Z,24.22
2016-07-30T12:56:38.605Z,24.22
2016-07-30T12:57:38.623Z,24.36
2016-07-30T12:58:38.647Z,24.36
2016-07-30T12:59:38.627Z,24.45
2016-07-30T13:00:38.638Z,24.42
2016-07-30T13:01:38.677Z,24.4
2016-07-30T13:02:38.635Z,24.37
2016-07-30T13:03:38.638Z,24.22
2016-07-30T13:04:38.655Z,24.22
2016-07-30T13:05:38.673Z,24.17
2016-07-30T13:06:38.668Z,24.17
2016-07-30T13:07:38.702Z,24.19
2016-07-30T13:08:38.629Z,24.22